sensor_id;sensor_type;location;lat;lon;timestamp;pressure;altitude;pressure_sealevel;temperature;humidity
59767;BME280;46248;58.364;25.582;2023-04-23T00:01:53;100541.06;;;4.62;69.68
59767;BME280;46248;58.364;25.582;2023-04-23T00:05:19;100549.75;;;4.59;70.54
59767;BME280;46248;58.364;25.582;2023-04-23T00:08:41;100542.94;;;4.57;70.78
59767;BME280;46248;58.364;25.582;2023-04-23T00:12:04;100543.03;;;4.52;70.37
59767;BME280;46248;58.364;25.582;2023-04-23T00:15:29;100548.38;;;4.46;71.22
59767;BME280;46248;58.364;25.582;2023-04-23T00:18:51;100550.31;;;4.38;70.90
59767;BME280;46248;58.364;25.582;2023-04-23T00:22:14;100546.09;;;4.34;70.64
59767;BME280;46248;58.364;25.582;2023-04-23T00:25:36;100538.50;;;4.26;71.67
59767;BME280;46248;58.364;25.582;2023-04-23T00:28:58;100541.22;;;4.22;72.03
59767;BME280;46248;58.364;25.582;2023-04-23T00:32:22;100545.66;;;4.17;71.53
59767;BME280;46248;58.364;25.582;2023-04-23T00:35:44;100540.59;;;4.12;72.46
59767;BME280;46248;58.364;25.582;2023-04-23T00:39:06;100549.41;;;4.05;72.15
59767;BME280;46248;58.364;25.582;2023-04-23T00:42:28;100550.38;;;3.99;72.27
59767;BME280;46248;58.364;25.582;2023-04-23T00:45:50;100548.84;;;3.92;72.43
59767;BME280;46248;58.364;25.582;2023-04-23T00:49:14;100548.13;;;3.85;74.01
59767;BME280;46248;58.364;25.582;2023-04-23T00:52:36;100535.69;;;3.64;74.77
59767;BME280;46248;58.364;25.582;2023-04-23T00:56:01;100545.22;;;3.62;75.06
59767;BME280;46248;58.364;25.582;2023-04-23T00:59:25;100545.31;;;3.57;74.87
59767;BME280;46248;58.364;25.582;2023-04-23T01:02:47;100543.75;;;3.50;74.22
59767;BME280;46248;58.364;25.582;2023-04-23T01:06:14;100537.78;;;3.47;75.21
59767;BME280;46248;58.364;25.582;2023-04-23T01:09:37;100542.19;;;3.41;75.49
59767;BME280;46248;58.364;25.582;2023-04-23T01:12:59;100537.06;;;3.40;74.27
59767;BME280;46248;58.364;25.582;2023-04-23T01:16:21;100533.66;;;3.38;74.10
59767;BME280;46248;58.364;25.582;2023-04-23T01:19:43;100530.22;;;3.36;73.52
59767;BME280;46248;58.364;25.582;2023-04-23T01:23:06;100532.81;;;3.36;73.78
59767;BME280;46248;58.364;25.582;2023-04-23T01:26:28;100531.19;;;3.33;74.42
59767;BME280;46248;58.364;25.582;2023-04-23T01:29:50;100525.22;;;3.28;73.96
59767;BME280;46248;58.364;25.582;2023-04-23T01:33:12;100530.44;;;3.27;73.99
59767;BME280;46248;58.364;25.582;2023-04-23T01:36:35;100523.63;;;3.22;74.51
59767;BME280;46248;58.364;25.582;2023-04-23T01:39:59;100522.78;;;3.20;74.95
59767;BME280;46248;58.364;25.582;2023-04-23T01:43:22;100518.50;;;3.19;74.39
59767;BME280;46248;58.364;25.582;2023-04-23T01:46:43;100515.97;;;3.18;74.19
59767;BME280;46248;58.364;25.582;2023-04-23T01:50:07;100523.75;;;3.16;74.08
59767;BME280;46248;58.364;25.582;2023-04-23T01:53:29;100528.16;;;3.11;73.73
59767;BME280;46248;58.364;25.582;2023-04-23T01:56:52;100523.03;;;3.08;74.08
59767;BME280;46248;58.364;25.582;2023-04-23T02:00:16;100526.66;;;3.01;75.12
59767;BME280;46248;58.364;25.582;2023-04-23T02:03:38;100525.88;;;2.97;76.99
59767;BME280;46248;58.364;25.582;2023-04-23T02:07:03;100525.09;;;2.92;78.08
59767;BME280;46248;58.364;25.582;2023-04-23T02:10:25;100526.00;;;2.90;77.47
59767;BME280;46248;58.364;25.582;2023-04-23T02:13:49;100522.56;;;2.91;77.82
59767;BME280;46248;58.364;25.582;2023-04-23T02:17:10;100528.56;;;2.91;78.22
59767;BME280;46248;58.364;25.582;2023-04-23T02:20:32;100534.59;;;2.90;79.42
59767;BME280;46248;58.364;25.582;2023-04-23T02:23:58;100532.06;;;2.89;79.09
59767;BME280;46248;58.364;25.582;2023-04-23T02:27:20;100539.81;;;2.89;78.92
59767;BME280;46248;58.364;25.582;2023-04-23T02:30:44;100525.19;;;2.88;78.29
59767;BME280;46248;58.364;25.582;2023-04-23T02:34:07;100515.03;;;2.79;78.28
59767;BME280;46248;58.364;25.582;2023-04-23T02:37:29;100532.13;;;2.86;77.78
59767;BME280;46248;58.364;25.582;2023-04-23T02:40:51;100527.91;;;2.82;78.50
59767;BME280;46248;58.364;25.582;2023-04-23T02:44:13;100530.50;;;2.80;77.40
59767;BME280;46248;58.364;25.582;2023-04-23T02:47:37;100506.59;;;2.69;77.86
59767;BME280;46248;58.364;25.582;2023-04-23T02:50:59;100521.19;;;2.73;78.29
59767;BME280;46248;58.364;25.582;2023-04-23T02:54:22;100520.50;;;2.62;79.00
59767;BME280;46248;58.364;25.582;2023-04-23T02:57:44;100523.09;;;2.63;78.42
59767;BME280;46248;58.364;25.582;2023-04-23T03:01:08;100529.16;;;2.59;80.51
59767;BME280;46248;58.364;25.582;2023-04-23T03:04:31;100527.44;;;2.60;80.33
59767;BME280;46248;58.364;25.582;2023-04-23T03:07:53;100520.50;;;2.62;80.84
59767;BME280;46248;58.364;25.582;2023-04-23T03:11:16;100531.66;;;2.65;80.73
59767;BME280;46248;58.364;25.582;2023-04-23T03:14:38;100505.94;;;2.58;80.67
59767;BME280;46248;58.364;25.582;2023-04-23T03:18:00;100525.50;;;2.71;82.16
59767;BME280;46248;58.364;25.582;2023-04-23T03:21:25;100530.63;;;2.74;82.89
59767;BME280;46248;58.364;25.582;2023-04-23T03:24:48;100521.97;;;2.77;83.68
59767;BME280;46248;58.364;25.582;2023-04-23T03:28:10;100526.97;;;2.84;84.33
59767;BME280;46248;58.364;25.582;2023-04-23T03:31:32;100525.16;;;2.91;84.48
59767;BME280;46248;58.364;25.582;2023-04-23T03:34:54;100525.03;;;2.97;85.20
59767;BME280;46248;58.364;25.582;2023-04-23T03:38:17;100522.25;;;3.06;84.41
59767;BME280;46248;58.364;25.582;2023-04-23T03:41:41;100526.41;;;3.13;84.17
59767;BME280;46248;58.364;25.582;2023-04-23T03:45:04;100528.78;;;3.24;84.72
59767;BME280;46248;58.364;25.582;2023-04-23T03:48:26;100529.38;;;3.37;85.22
59767;BME280;46248;58.364;25.582;2023-04-23T03:51:48;100519.66;;;3.47;85.53
59767;BME280;46248;58.364;25.582;2023-04-23T03:55:11;100532.91;;;3.72;84.78
59767;BME280;46248;58.364;25.582;2023-04-23T03:58:33;100544.44;;;3.96;84.51
59767;BME280;46248;58.364;25.582;2023-04-23T04:01:55;100536.94;;;4.21;84.79
59767;BME280;46248;58.364;25.582;2023-04-23T04:05:17;100536.25;;;4.48;83.75
59767;BME280;46248;58.364;25.582;2023-04-23T04:08:39;100544.31;;;4.69;82.30
59767;BME280;46248;58.364;25.582;2023-04-23T04:12:03;100542.81;;;4.93;82.08
59767;BME280;46248;58.364;25.582;2023-04-23T04:15:25;100538.81;;;5.12;81.20
59767;BME280;46248;58.364;25.582;2023-04-23T04:18:47;100516.88;;;5.24;80.58
59767;BME280;46248;58.364;25.582;2023-04-23T04:22:09;100535.50;;;5.66;80.23
59767;BME280;46248;58.364;25.582;2023-04-23T04:25:31;100532.91;;;5.94;78.46
59767;BME280;46248;58.364;25.582;2023-04-23T04:28:54;100517.34;;;6.19;77.68
59767;BME280;46248;58.364;25.582;2023-04-23T04:32:18;100526.59;;;6.55;76.67
59767;BME280;46248;58.364;25.582;2023-04-23T04:35:42;100529.06;;;6.83;75.81
59767;BME280;46248;58.364;25.582;2023-04-23T04:39:05;100529.41;;;6.97;74.76
59767;BME280;46248;58.364;25.582;2023-04-23T04:42:27;100531.47;;;7.13;73.70
59767;BME280;46248;58.364;25.582;2023-04-23T04:45:51;100528.41;;;7.25;74.45
59767;BME280;46248;58.364;25.582;2023-04-23T04:49:13;100524.88;;;7.49;73.27
59767;BME280;46248;58.364;25.582;2023-04-23T04:52:35;100497.00;;;7.51;72.46
59767;BME280;46248;58.364;25.582;2023-04-23T04:55:57;100521.88;;;7.82;71.71
59767;BME280;46248;58.364;25.582;2023-04-23T04:59:18;100518.47;;;8.02;71.22
59767;BME280;46248;58.364;25.582;2023-04-23T05:02:44;100519.41;;;8.21;70.28
59767;BME280;46248;58.364;25.582;2023-04-23T05:06:06;100523.97;;;8.38;69.37
59767;BME280;46248;58.364;25.582;2023-04-23T05:09:28;100521.81;;;8.48;69.11
59767;BME280;46248;58.364;25.582;2023-04-23T05:12:50;100515.72;;;8.68;68.60
59767;BME280;46248;58.364;25.582;2023-04-23T05:16:12;100509.69;;;8.86;68.32
59767;BME280;46248;58.364;25.582;2023-04-23T05:19:36;100513.88;;;9.09;67.92
59767;BME280;46248;58.364;25.582;2023-04-23T05:22:58;100519.06;;;9.30;66.45
59767;BME280;46248;58.364;25.582;2023-04-23T05:26:21;100503.88;;;9.38;66.05
59767;BME280;46248;58.364;25.582;2023-04-23T05:29:44;100506.38;;;9.58;64.95
59767;BME280;46248;58.364;25.582;2023-04-23T05:33:06;100513.59;;;9.72;64.22
59767;BME280;46248;58.364;25.582;2023-04-23T05:36:29;100503.47;;;9.83;64.19
59767;BME280;46248;58.364;25.582;2023-04-23T05:39:53;100498.03;;;10.05;63.78
59767;BME280;46248;58.364;25.582;2023-04-23T05:43:16;100492.03;;;10.21;62.94
59767;BME280;46248;58.364;25.582;2023-04-23T05:46:38;100494.53;;;10.41;61.71
59767;BME280;46248;58.364;25.582;2023-04-23T05:50:00;100493.91;;;10.53;60.85
59767;BME280;46248;58.364;25.582;2023-04-23T05:53:24;100495.47;;;10.73;60.44
59767;BME280;46248;58.364;25.582;2023-04-23T05:56:46;100491.03;;;10.91;60.33
59767;BME280;46248;58.364;25.582;2023-04-23T06:00:09;100493.59;;;11.09;59.22
59767;BME280;46248;58.364;25.582;2023-04-23T06:03:31;100491.09;;;11.23;59.20
59767;BME280;46248;58.364;25.582;2023-04-23T06:06:57;100470.19;;;11.21;57.84
59767;BME280;46248;58.364;25.582;2023-04-23T06:10:20;100488.66;;;11.36;58.33
59767;BME280;46248;58.364;25.582;2023-04-23T06:13:42;100490.31;;;11.53;58.37
59767;BME280;46248;58.364;25.582;2023-04-23T06:17:04;100483.97;;;11.73;57.89
59767;BME280;46248;58.364;25.582;2023-04-23T06:20:25;100474.13;;;11.92;57.82
59767;BME280;46248;58.364;25.582;2023-04-23T06:23:48;100489.88;;;12.22;56.39
59767;BME280;46248;58.364;25.582;2023-04-23T06:27:12;100476.81;;;12.36;56.53
59767;BME280;46248;58.364;25.582;2023-04-23T06:30:34;100478.50;;;12.52;54.54
59767;BME280;46248;58.364;25.582;2023-04-23T06:33:56;100475.91;;;12.66;54.64
59767;BME280;46248;58.364;25.582;2023-04-23T06:37:18;100463.53;;;12.68;54.24
59767;BME280;46248;58.364;25.582;2023-04-23T06:40:40;100475.63;;;12.85;53.41
59767;BME280;46248;58.364;25.582;2023-04-23T06:44:03;100474.69;;;12.86;53.82
59767;BME280;46248;58.364;25.582;2023-04-23T06:47:26;100474.03;;;12.97;54.25
59767;BME280;46248;58.364;25.582;2023-04-23T06:50:49;100469.84;;;13.21;53.43
59767;BME280;46248;58.364;25.582;2023-04-23T06:54:11;100477.66;;;13.37;53.59
59767;BME280;46248;58.364;25.582;2023-04-23T06:57:33;100475.00;;;13.51;52.10
59767;BME280;46248;58.364;25.582;2023-04-23T07:00:58;100461.34;;;13.59;51.00
59767;BME280;46248;58.364;25.582;2023-04-23T07:04:21;100460.84;;;13.67;51.41
59767;BME280;46248;58.364;25.582;2023-04-23T07:07:43;100466.59;;;13.86;51.71
59767;BME280;46248;58.364;25.582;2023-04-23T07:11:05;100460.75;;;13.95;49.94
59767;BME280;46248;58.364;25.582;2023-04-23T07:14:27;100454.75;;;14.06;49.40
59767;BME280;46248;58.364;25.582;2023-04-23T07:17:51;100455.63;;;14.19;48.55
59767;BME280;46248;58.364;25.582;2023-04-23T07:21:13;100461.19;;;14.28;49.72
59767;BME280;46248;58.364;25.582;2023-04-23T07:24:36;100456.16;;;14.50;48.66
59767;BME280;46248;58.364;25.582;2023-04-23T07:27:59;100456.59;;;14.70;48.73
59767;BME280;46248;58.364;25.582;2023-04-23T07:31:21;100451.31;;;14.82;48.83
59767;BME280;46248;58.364;25.582;2023-04-23T07:34:44;100463.13;;;15.02;48.06
59767;BME280;46248;58.364;25.582;2023-04-23T07:38:06;100460.78;;;15.10;46.62
59767;BME280;46248;58.364;25.582;2023-04-23T07:41:28;100452.03;;;15.10;47.30
59767;BME280;46248;58.364;25.582;2023-04-23T07:44:50;100453.88;;;15.21;47.75
59767;BME280;46248;58.364;25.582;2023-04-23T07:48:12;100443.50;;;15.30;48.15
59767;BME280;46248;58.364;25.582;2023-04-23T07:51:36;100438.31;;;15.42;47.15
59767;BME280;46248;58.364;25.582;2023-04-23T07:54:58;100447.75;;;15.57;45.83
59767;BME280;46248;58.364;25.582;2023-04-23T07:58:20;100441.91;;;15.65;46.29
59767;BME280;46248;58.364;25.582;2023-04-23T08:01:43;100436.09;;;15.72;46.29
59767;BME280;46248;58.364;25.582;2023-04-23T08:05:05;100443.69;;;15.88;44.98
59767;BME280;46248;58.364;25.582;2023-04-23T08:08:29;100437.63;;;15.99;45.98
59767;BME280;46248;58.364;25.582;2023-04-23T08:11:51;100443.66;;;16.12;45.90
59767;BME280;46248;58.364;25.582;2023-04-23T08:15:14;100440.22;;;16.23;45.27
59767;BME280;46248;58.364;25.582;2023-04-23T08:18:36;100429.75;;;16.21;45.07
59767;BME280;46248;58.364;25.582;2023-04-23T08:21:59;100422.69;;;16.22;45.26
59767;BME280;46248;58.364;25.582;2023-04-23T08:25:22;100438.06;;;16.28;44.79
59767;BME280;46248;58.364;25.582;2023-04-23T08:28:45;100429.66;;;16.23;44.61
59767;BME280;46248;58.364;25.582;2023-04-23T08:32:07;100415.38;;;16.25;45.44
59767;BME280;46248;58.364;25.582;2023-04-23T08:35:30;100418.50;;;16.42;45.24
59767;BME280;46248;58.364;25.582;2023-04-23T08:38:52;100417.31;;;16.57;44.76
59767;BME280;46248;58.364;25.582;2023-04-23T08:42:22;100419.00;;;16.69;45.02
59767;BME280;46248;58.364;25.582;2023-04-23T08:45:47;100414.81;;;16.78;44.12
59767;BME280;46248;58.364;25.582;2023-04-23T08:49:13;100410.13;;;16.82;44.00
59767;BME280;46248;58.364;25.582;2023-04-23T08:52:38;100401.94;;;16.85;43.53
59767;BME280;46248;58.364;25.582;2023-04-23T08:56:01;100404.50;;;16.86;44.84
59767;BME280;46248;58.364;25.582;2023-04-23T08:59:26;100403.88;;;16.94;44.58
59767;BME280;46248;58.364;25.582;2023-04-23T09:02:50;100399.78;;;17.01;44.09
59767;BME280;46248;58.364;25.582;2023-04-23T09:06:12;100387.25;;;17.03;44.17
59767;BME280;46248;58.364;25.582;2023-04-23T09:09:35;100393.84;;;17.20;42.51
59767;BME280;46248;58.364;25.582;2023-04-23T09:13:01;100384.59;;;17.14;43.11
59767;BME280;46248;58.364;25.582;2023-04-23T09:16:25;100377.50;;;17.15;43.18
59767;BME280;46248;58.364;25.582;2023-04-23T09:19:49;100375.06;;;17.23;43.30
59767;BME280;46248;58.364;25.582;2023-04-23T09:23:13;100375.75;;;17.36;43.70
59767;BME280;46248;58.364;25.582;2023-04-23T09:26:43;100383.66;;;17.48;43.01
59767;BME280;46248;58.364;25.582;2023-04-23T09:30:08;100356.19;;;17.49;42.62
59767;BME280;46248;58.364;25.582;2023-04-23T09:33:33;100362.91;;;17.64;41.46
59767;BME280;46248;58.364;25.582;2023-04-23T09:36:59;100363.59;;;17.66;41.35
59767;BME280;46248;58.364;25.582;2023-04-23T09:40:23;100358.03;;;17.69;42.76
59767;BME280;46248;58.364;25.582;2023-04-23T09:43:46;100354.88;;;17.75;42.73
59767;BME280;46248;58.364;25.582;2023-04-23T09:47:08;100360.53;;;17.82;42.90
59767;BME280;46248;58.364;25.582;2023-04-23T09:50:35;100355.22;;;17.82;40.49
59767;BME280;46248;58.364;25.582;2023-04-23T09:53:58;100357.41;;;17.77;42.47
59767;BME280;46248;58.364;25.582;2023-04-23T09:57:23;100337.09;;;17.77;40.98
59767;BME280;46248;58.364;25.582;2023-04-23T10:00:45;100349.47;;;17.77;42.27
59767;BME280;46248;58.364;25.582;2023-04-23T10:04:11;100339.34;;;17.82;41.63
59767;BME280;46248;58.364;25.582;2023-04-23T10:07:35;100335.91;;;17.91;41.89
59767;BME280;46248;58.364;25.582;2023-04-23T10:10:59;100335.78;;;17.93;40.93
59767;BME280;46248;58.364;25.582;2023-04-23T10:14:40;100340.13;;;17.94;41.58
59767;BME280;46248;58.364;25.582;2023-04-23T10:18:03;100327.47;;;17.97;42.20
59767;BME280;46248;58.364;25.582;2023-04-23T10:21:28;100333.75;;;18.06;41.77
59767;BME280;46248;58.364;25.582;2023-04-23T10:25:10;100335.50;;;18.17;40.96
59767;BME280;46248;58.364;25.582;2023-04-23T10:28:32;100322.72;;;18.22;41.90
59767;BME280;46248;58.364;25.582;2023-04-23T10:31:57;100308.75;;;18.20;41.64
59767;BME280;46248;58.364;25.582;2023-04-23T10:35:19;100317.97;;;18.25;40.71
59767;BME280;46248;58.364;25.582;2023-04-23T10:38:42;100308.06;;;18.27;41.55
59767;BME280;46248;58.364;25.582;2023-04-23T10:42:18;100312.41;;;18.28;40.95
59767;BME280;46248;58.364;25.582;2023-04-23T10:45:42;100310.09;;;18.14;41.29
59767;BME280;46248;58.364;25.582;2023-04-23T10:49:10;100305.66;;;18.15;41.73
59767;BME280;46248;58.364;25.582;2023-04-23T10:52:34;100295.34;;;18.21;41.19
59767;BME280;46248;58.364;25.582;2023-04-23T10:56:04;100305.09;;;18.21;40.63
59767;BME280;46248;58.364;25.582;2023-04-23T10:59:29;100292.69;;;18.21;41.29
59767;BME280;46248;58.364;25.582;2023-04-23T11:02:52;100265.50;;;18.19;41.50
59767;BME280;46248;58.364;25.582;2023-04-23T11:06:18;100291.53;;;18.45;41.12
59767;BME280;46248;58.364;25.582;2023-04-23T11:09:41;100282.50;;;18.57;40.04
59767;BME280;46248;58.364;25.582;2023-04-23T11:13:21;100269.00;;;18.70;40.10
59767;BME280;46248;58.364;25.582;2023-04-23T11:16:48;100265.97;;;18.84;40.44
59767;BME280;46248;58.364;25.582;2023-04-23T11:20:12;100264.72;;;18.98;39.26
59767;BME280;46248;58.364;25.582;2023-04-23T11:23:35;100278.56;;;19.02;40.14
59767;BME280;46248;58.364;25.582;2023-04-23T11:26:57;100264.31;;;19.12;39.85
59767;BME280;46248;58.364;25.582;2023-04-23T11:30:21;100252.00;;;19.21;40.46
59767;BME280;46248;58.364;25.582;2023-04-23T11:33:45;100262.22;;;19.26;38.78
59767;BME280;46248;58.364;25.582;2023-04-23T11:37:09;100265.56;;;19.18;38.97
59767;BME280;46248;58.364;25.582;2023-04-23T11:40:31;100250.47;;;19.09;40.24
59767;BME280;46248;58.364;25.582;2023-04-23T11:43:53;100251.34;;;19.09;40.01
59767;BME280;46248;58.364;25.582;2023-04-23T11:47:17;100243.50;;;18.98;39.29
59767;BME280;46248;58.364;25.582;2023-04-23T11:50:41;100235.41;;;19.09;39.16
59767;BME280;46248;58.364;25.582;2023-04-23T11:54:03;100227.84;;;19.24;39.91
59767;BME280;46248;58.364;25.582;2023-04-23T11:57:26;100228.94;;;19.41;39.68
59767;BME280;46248;58.364;25.582;2023-04-23T12:00:47;100235.34;;;19.67;38.11
59767;BME280;46248;58.364;25.582;2023-04-23T12:04:10;100220.50;;;19.75;36.33
59767;BME280;46248;58.364;25.582;2023-04-23T12:07:34;100222.31;;;19.74;37.83
59767;BME280;46248;58.364;25.582;2023-04-23T12:10:59;100217.28;;;19.71;37.49
59767;BME280;46248;58.364;25.582;2023-04-23T12:14:25;100220.09;;;19.70;37.33
59767;BME280;46248;58.364;25.582;2023-04-23T12:17:49;100215.44;;;19.81;37.22
59767;BME280;46248;58.364;25.582;2023-04-23T12:21:12;100218.63;;;19.95;38.20
59767;BME280;46248;58.364;25.582;2023-04-23T12:24:46;100204.16;;;20.07;36.50
59767;BME280;46248;58.364;25.582;2023-04-23T12:28:09;100203.63;;;20.03;36.47
59767;BME280;46248;58.364;25.582;2023-04-23T12:31:31;100195.94;;;20.00;36.41
59767;BME280;46248;58.364;25.582;2023-04-23T12:34:54;100182.09;;;19.97;36.03
59767;BME280;46248;58.364;25.582;2023-04-23T12:38:23;100195.47;;;20.05;36.19
59767;BME280;46248;58.364;25.582;2023-04-23T12:41:48;100188.34;;;20.05;35.76
59767;BME280;46248;58.364;25.582;2023-04-23T12:45:10;100189.13;;;20.16;35.03
59767;BME280;46248;58.364;25.582;2023-04-23T12:48:32;100186.25;;;20.27;35.04
59767;BME280;46248;58.364;25.582;2023-04-23T12:51:54;100181.50;;;20.30;33.79
59767;BME280;46248;58.364;25.582;2023-04-23T12:55:22;100175.38;;;20.20;32.95
59767;BME280;46248;58.364;25.582;2023-04-23T12:58:45;100176.09;;;20.22;31.87
59767;BME280;46248;58.364;25.582;2023-04-23T13:02:08;100159.72;;;20.17;33.11
59767;BME280;46248;58.364;25.582;2023-04-23T13:05:31;100175.09;;;20.23;31.64
59767;BME280;46248;58.364;25.582;2023-04-23T13:08:54;100174.13;;;20.24;30.11
59767;BME280;46248;58.364;25.582;2023-04-23T13:12:16;100179.16;;;20.18;27.99
59767;BME280;46248;58.364;25.582;2023-04-23T13:15:41;100180.38;;;20.05;27.48
59767;BME280;46248;58.364;25.582;2023-04-23T13:19:04;100171.84;;;20.02;29.74
59767;BME280;46248;58.364;25.582;2023-04-23T13:22:26;100177.69;;;20.05;29.23
59767;BME280;46248;58.364;25.582;2023-04-23T13:25:49;100173.44;;;19.95;28.47
59767;BME280;46248;58.364;25.582;2023-04-23T13:29:11;100185.03;;;19.94;29.27
59767;BME280;46248;58.364;25.582;2023-04-23T13:32:34;100181.84;;;19.90;29.68
59767;BME280;46248;58.364;25.582;2023-04-23T13:35:57;100176.44;;;19.82;29.19
59767;BME280;46248;58.364;25.582;2023-04-23T13:39:21;100171.97;;;19.82;30.64
59767;BME280;46248;58.364;25.582;2023-04-23T13:42:43;100147.41;;;19.71;30.53
59767;BME280;46248;58.364;25.582;2023-04-23T13:46:07;100172.78;;;19.83;30.31
59767;BME280;46248;58.364;25.582;2023-04-23T13:49:31;100167.47;;;19.83;29.63
59767;BME280;46248;58.364;25.582;2023-04-23T13:52:53;100172.78;;;19.83;30.34
59767;BME280;46248;58.364;25.582;2023-04-23T13:56:15;100174.22;;;19.77;29.55
59767;BME280;46248;58.364;25.582;2023-04-23T13:59:38;100170.19;;;19.73;29.83
59767;BME280;46248;58.364;25.582;2023-04-23T14:02:59;100179.94;;;19.73;29.50
59767;BME280;46248;58.364;25.582;2023-04-23T14:06:22;100166.94;;;19.70;30.77
59767;BME280;46248;58.364;25.582;2023-04-23T14:09:44;100168.09;;;19.67;29.92
59767;BME280;46248;58.364;25.582;2023-04-23T14:13:06;100165.31;;;19.59;28.54
59767;BME280;46248;58.364;25.582;2023-04-23T14:16:28;100155.81;;;19.56;29.70
59767;BME280;46248;58.364;25.582;2023-04-23T14:19:50;100156.38;;;19.50;29.50
59767;BME280;46248;58.364;25.582;2023-04-23T14:23:44;100148.16;;;19.43;29.93
59767;BME280;46248;58.364;25.582;2023-04-23T14:27:06;100160.41;;;19.54;31.40
59767;BME280;46248;58.364;25.582;2023-04-23T14:30:28;100155.97;;;19.55;31.27
59767;BME280;46248;58.364;25.582;2023-04-23T14:33:50;100145.06;;;19.48;31.63
59767;BME280;46248;58.364;25.582;2023-04-23T14:37:13;100162.94;;;19.56;31.58
59767;BME280;46248;58.364;25.582;2023-04-23T14:40:38;100155.09;;;19.54;31.06
59767;BME280;46248;58.364;25.582;2023-04-23T14:44:00;100146.75;;;19.49;31.35
59767;BME280;46248;58.364;25.582;2023-04-23T14:47:22;100149.53;;;19.48;32.26
59767;BME280;46248;58.364;25.582;2023-04-23T14:50:45;100143.28;;;19.49;32.25
59767;BME280;46248;58.364;25.582;2023-04-23T14:54:07;100141.56;;;19.48;32.28
59767;BME280;46248;58.364;25.582;2023-04-23T14:57:30;100138.25;;;19.45;31.64
59767;BME280;46248;58.364;25.582;2023-04-23T15:00:52;100145.50;;;19.43;32.45
59767;BME280;46248;58.364;25.582;2023-04-23T15:04:15;100139.09;;;19.36;31.84
59767;BME280;46248;58.364;25.582;2023-04-23T15:07:37;100132.00;;;19.27;32.11
59767;BME280;46248;58.364;25.582;2023-04-23T15:11:00;100134.34;;;19.30;32.33
59767;BME280;46248;58.364;25.582;2023-04-23T15:14:30;100135.22;;;19.31;32.61
59767;BME280;46248;58.364;25.582;2023-04-23T15:17:52;100130.88;;;19.30;32.62
59767;BME280;46248;58.364;25.582;2023-04-23T15:21:15;100127.84;;;19.25;32.55
59767;BME280;46248;58.364;25.582;2023-04-23T15:24:37;100126.28;;;19.22;32.85
59767;BME280;46248;58.364;25.582;2023-04-23T15:27:59;100128.78;;;19.23;33.18
59767;BME280;46248;58.364;25.582;2023-04-23T15:31:22;100126.97;;;19.24;33.21
59767;BME280;46248;58.364;25.582;2023-04-23T15:34:45;100126.72;;;19.17;32.78
59767;BME280;46248;58.364;25.582;2023-04-23T15:38:06;100115.00;;;19.10;32.67
59767;BME280;46248;58.364;25.582;2023-04-23T15:41:28;100129.94;;;19.11;33.10
59767;BME280;46248;58.364;25.582;2023-04-23T15:44:53;100116.81;;;19.10;33.35
59767;BME280;46248;58.364;25.582;2023-04-23T15:48:17;100115.13;;;19.09;33.72
59767;BME280;46248;58.364;25.582;2023-04-23T15:51:39;100115.13;;;19.09;33.28
59767;BME280;46248;58.364;25.582;2023-04-23T15:55:01;100108.59;;;19.03;33.29
59767;BME280;46248;58.364;25.582;2023-04-23T15:58:24;100108.19;;;18.98;33.12
59767;BME280;46248;58.364;25.582;2023-04-23T16:01:46;100109.31;;;18.95;33.66
59767;BME280;46248;58.364;25.582;2023-04-23T16:05:09;100102.06;;;18.97;33.94
59767;BME280;46248;58.364;25.582;2023-04-23T16:08:33;100098.09;;;19.11;34.38
59767;BME280;46248;58.364;25.582;2023-04-23T16:11:56;100096.66;;;19.27;34.15
59767;BME280;46248;58.364;25.582;2023-04-23T16:15:18;100088.03;;;19.52;34.46
59767;BME280;46248;58.364;25.582;2023-04-23T16:18:40;100089.47;;;20.02;33.94
59767;BME280;46248;58.364;25.582;2023-04-23T16:22:04;100076.28;;;20.46;33.35
59767;BME280;46248;58.364;25.582;2023-04-23T16:25:26;100088.41;;;20.84;33.14
59767;BME280;46248;58.364;25.582;2023-04-23T16:28:49;100082.56;;;21.07;33.80
59767;BME280;46248;58.364;25.582;2023-04-23T16:32:30;100076.25;;;21.08;32.90
59767;BME280;46248;58.364;25.582;2023-04-23T16:35:56;100069.91;;;21.00;32.15
59767;BME280;46248;58.364;25.582;2023-04-23T16:39:20;100057.25;;;20.76;33.53
59767;BME280;46248;58.364;25.582;2023-04-23T16:42:44;100063.09;;;20.80;33.12
59767;BME280;46248;58.364;25.582;2023-04-23T16:46:08;100040.84;;;20.63;32.96
59767;BME280;46248;58.364;25.582;2023-04-23T16:49:30;100051.88;;;20.50;32.60
59767;BME280;46248;58.364;25.582;2023-04-23T16:52:52;100045.34;;;20.27;33.31
59767;BME280;46248;58.364;25.582;2023-04-23T16:56:15;100054.91;;;20.02;33.33
59767;BME280;46248;58.364;25.582;2023-04-23T16:59:37;100039.47;;;19.70;33.95
59767;BME280;46248;58.364;25.582;2023-04-23T17:03:00;100045.50;;;19.62;34.47
59767;BME280;46248;58.364;25.582;2023-04-23T17:06:27;100054.28;;;19.72;33.97
59767;BME280;46248;58.364;25.582;2023-04-23T17:09:49;100053.63;;;19.88;33.87
59767;BME280;46248;58.364;25.582;2023-04-23T17:13:13;100044.47;;;20.00;33.69
59767;BME280;46248;58.364;25.582;2023-04-23T17:16:35;100035.56;;;20.09;34.08
59767;BME280;46248;58.364;25.582;2023-04-23T17:19:56;100045.00;;;20.22;33.46
59767;BME280;46248;58.364;25.582;2023-04-23T17:23:19;100042.38;;;20.12;33.36
59767;BME280;46248;58.364;25.582;2023-04-23T17:26:41;100039.66;;;19.86;34.10
59767;BME280;46248;58.364;25.582;2023-04-23T17:30:06;100037.97;;;19.57;34.64
59767;BME280;46248;58.364;25.582;2023-04-23T17:33:30;100046.38;;;19.25;34.72